^^
Datos históricos de la estación: Murcia-Puente Tocinos
Diario Informe para Marzo 08, 2021 Unidades:  Métrico    Ingés   Ambas
Diario Semanal Mensual Anual
  Máxima: Mínima: Promedio:
Temperatura: 17.8 °C 10.2 °C 13 °C
Punto de rocio: 11.3 °C 7.1 °C 9.3 °C
Humedad: 95% 50.1% 80%
Velocidad viento: 19km/h 0km/h 7.4km/h
Racha viento: 32.2km/h - -
Viento- - Sur
Presión: 1015.6 hPa 1011.3 hPa -
Precipitación: 8.4 mm    
 
 
Tabla de datos para Marzo 08, 2021
Hora Temperatura Punto de rocio Presión Viento Velocidad viento Racha viento Humedad Intensidad lluvia(por hora) Nubes
00:04 12.1 °C 11.3 °C 1014.2 hPa SSO 6.5 km/h 13 km/h 95% 0.0 mm
00:09 12.1 °C 11.3 °C 1014.2 hPa Sur 6.1 km/h 11.1 km/h 95% 0.0 mm
00:14 12.1 °C 11.3 °C 1014.2 hPa Sur 5.8 km/h 11.3 km/h 94.7% 0.0 mm
00:19 12.2 °C 11.2 °C 1014.0 hPa SSO 6.2 km/h 9.7 km/h 94% 0.0 mm
00:24 12.2 °C 11.3 °C 1014.0 hPa SSO 6.5 km/h 13 km/h 94% 0.0 mm
00:29 12.2 °C 11.3 °C 1014.0 hPa SSO 6.5 km/h 12.9 km/h 93.9% 0.0 mm
00:34 12.2 °C 11.1 °C 1013.8 hPa SSO 6.5 km/h 10 km/h 93% 0.0 mm
00:39 12.3 °C 11.2 °C 1013.8 hPa SSO 6.1 km/h 9.7 km/h 93% 0.0 mm
00:44 12.3 °C 11.2 °C 1013.8 hPa SSO 5.8 km/h 11.1 km/h 92.7% 0.0 mm
00:49 12.3 °C 11.1 °C 1013.7 hPa SSO 5.8 km/h 11.3 km/h 92% 0.0 mm
00:54 12.3 °C 11.1 °C 1013.7 hPa SSO 5.8 km/h 9.7 km/h 92% 0.0 mm
00:59 12.3 °C 11 °C 1013.7 hPa Sur 5.8 km/h 9.7 km/h 91.6% 0.0 mm
01:04 12.3 °C 10.9 °C 1013.6 hPa Sur 5.8 km/h 8 km/h 91% 0.0 mm
01:09 12.3 °C 10.9 °C 1013.6 hPa Sur 5.3 km/h 10 km/h 91% 0.0 mm
01:14 12.3 °C 10.9 °C 1013.6 hPa Sur 5 km/h 10.3 km/h 91% 0.0 mm
01:19 12.3 °C 10.9 °C 1013.5 hPa Sur 5.5 km/h 11.3 km/h 91% 0.0 mm
01:24 12.2 °C 10.8 °C 1013.5 hPa SSO 5.8 km/h 11.3 km/h 91% 0.0 mm
01:29 12.2 °C 10.8 °C 1013.5 hPa Sur 6.5 km/h 10 km/h 91% 0.0 mm
01:34 12.2 °C 10.8 °C 1013.3 hPa SSO 6.9 km/h 9.7 km/h 91% 0.0 mm
01:39 12.1 °C 10.7 °C 1013.3 hPa SSO 6.2 km/h 10 km/h 91% 0.0 mm
01:44 12.1 °C 10.7 °C 1013.3 hPa SSO 5.8 km/h 11.1 km/h 91% 0.0 mm
01:49 12.1 °C 10.6 °C 1013.3 hPa SSO 6.5 km/h 11.3 km/h 90.6% 0.0 mm
01:54 12.1 °C 10.5 °C 1013.3 hPa Sur 6.9 km/h 11.3 km/h 90% 0.0 mm
01:59 12.1 °C 10.5 °C 1013.3 hPa Sur 6.9 km/h 11.9 km/h 90% 0.0 mm
02:04 12.1 °C 10.5 °C 1013.3 hPa Sur 6.9 km/h 11.3 km/h 90% 0.0 mm
02:09 12.1 °C 10.5 °C 1013.3 hPa Sur 7.8 km/h 11.3 km/h 90% 0.0 mm
02:14 12.1 °C 10.5 °C 1013.3 hPa Sur 8.4 km/h 11.3 km/h 90% 0.0 mm
02:19 12.1 °C 10.5 °C 1013.3 hPa SSO 7.5 km/h 11.3 km/h 90% 0.0 mm
02:24 12.1 °C 10.5 °C 1013.3 hPa SSO 6.9 km/h 11.3 km/h 90% 0.0 mm
02:29 12.1 °C 10.3 °C 1013.3 hPa SSO 6.6 km/h 11.9 km/h 89% 0.0 mm
02:34 12.1 °C 10.3 °C 1013.1 hPa SSO 6.5 km/h 11.3 km/h 89% 0.0 mm
02:39 12.1 °C 10.3 °C 1013.1 hPa SSO 6.8 km/h 11.3 km/h 89% 0.0 mm
02:44 12 °C 10.1 °C 1013.1 hPa SSO 6.9 km/h 11.3 km/h 88.1% 0.0 mm
02:49 12 °C 10.1 °C 1012.9 hPa SSO 6.6 km/h 11.3 km/h 88% 0.0 mm
02:54 12 °C 10 °C 1012.9 hPa SSO 6.5 km/h 11.1 km/h 88% 0.0 mm
02:59 11.9 °C 10 °C 1012.9 hPa SSO 6.5 km/h 11.3 km/h 88% 0.0 mm
03:04 11.9 °C 9.9 °C 1012.7 hPa Sur 6.5 km/h 11.3 km/h 87.6% 0.0 mm
03:09 11.9 °C 9.8 °C 1012.7 hPa Sur 6.8 km/h 11.3 km/h 87% 0.0 mm
03:14 11.9 °C 9.9 °C 1012.7 hPa Sur 6.9 km/h 11.3 km/h 87.4% 0.0 mm
03:19 11.9 °C 10 °C 1012.5 hPa Sur 6.6 km/h 11.1 km/h 88% 0.0 mm
03:24 11.8 °C 9.9 °C 1012.5 hPa Sur 6.4 km/h 9.3 km/h 88% 0.0 mm
03:29 11.8 °C 9.9 °C 1012.5 hPa Sur 6.5 km/h 10 km/h 88% 0.0 mm
03:34 11.8 °C 9.9 °C 1012.4 hPa Sur 6.5 km/h 9.7 km/h 88% 0.0 mm
03:39 11.8 °C 9.9 °C 1012.4 hPa Sur 6.1 km/h 9.7 km/h 88% 0.0 mm
03:44 11.7 °C 9.8 °C 1012.4 hPa Sur 5.8 km/h 9.5 km/h 88% 0.0 mm
03:49 11.7 °C 9.8 °C 1012.3 hPa Sur 5.8 km/h 9.7 km/h 88% 0.0 mm
03:54 11.6 °C 9.7 °C 1012.3 hPa Sur 5.8 km/h 9.7 km/h 88% 0.0 mm
03:59 11.6 °C 9.6 °C 1012.3 hPa Sur 6.2 km/h 10 km/h 88% 0.0 mm
04:04 11.5 °C 9.6 °C 1012.1 hPa Sur 6.5 km/h 9.7 km/h 88.2% 0.0 mm
04:09 11.5 °C 9.7 °C 1012.1 hPa Sur 5.5 km/h 9.5 km/h 89% 0.0 mm
04:14 11.4 °C 9.7 °C 1012.1 hPa SSO 5 km/h 11.1 km/h 89% 0.0 mm
04:19 11.4 °C 9.7 °C 1012.1 hPa SSO 6.2 km/h 11.3 km/h 89% 0.0 mm
04:24 11.4 °C 9.7 °C 1012.1 hPa SSO 6.9 km/h 9.7 km/h 89% 0.0 mm
04:29 11.4 °C 9.5 °C 1012.1 hPa SSO 6.2 km/h 9.7 km/h 88.3% 0.0 mm
04:34 11.4 °C 9.5 °C 1012.0 hPa SSO 5.8 km/h 8 km/h 88% 0.0 mm
04:39 11.4 °C 9.5 °C 1012.0 hPa SSO 5.3 km/h 8 km/h 88% 0.0 mm
04:44 11.3 °C 9.4 °C 1012.1 hPa SO 5 km/h 8 km/h 88% 0.0 mm
04:49 11.3 °C 9.4 °C 1012.1 hPa SO 4.3 km/h 8 km/h 88% 0.0 mm
04:54 11.3 °C 9.4 °C 1012.1 hPa SO 3.9 km/h 4.8 km/h 88% 0.0 mm
04:59 11.3 °C 9.5 °C 1012.1 hPa SO 3.2 km/h 3.9 km/h 88.6% 0.0 mm
05:04 11.2 °C 9.4 °C 1011.9 hPa OSO 2.9 km/h 5.8 km/h 88.8% 0.0 mm
05:09 11.1 °C 9.4 °C 1011.9 hPa Oeste 2.9 km/h 6.4 km/h 89% 0.0 mm
05:14 11.1 °C 9.3 °C 1012.0 hPa Oeste 2.9 km/h 7.6 km/h 89% 0.0 mm
05:19 10.9 °C 9.2 °C 1012.0 hPa OSO 2.5 km/h 9.3 km/h 89% 0.0 mm
05:24 10.8 °C 9.2 °C 1012.0 hPa SO 2.2 km/h 11.1 km/h 89.8% 0.0 mm
05:29 10.8 °C 9.2 °C 1012.0 hPa OSO 4.9 km/h 11.3 km/h 90% 0.0 mm
05:34 10.7 °C 9.1 °C 1012.0 hPa OSO 6.5 km/h 9.7 km/h 90% 0.0 mm
05:39 10.6 °C 9.1 °C 1012.0 hPa OSO 5.5 km/h 9.7 km/h 90.4% 0.0 mm
05:40 10.6 °C 9.2 °C 1012.0 hPa OSO 5 km/h 9.7 km/h 91% 0.0 mm
05:49 10.4 °C 9 °C 1012.1 hPa SO 5.5 km/h 11.1 km/h 91% 0.0 mm
05:54 10.4 °C 9 °C 1012.1 hPa SO 5.8 km/h 11.3 km/h 91% 0.0 mm
05:59 10.5 °C 9.1 °C 1012.2 hPa SO 5.8 km/h 9.7 km/h 91% 0.0 mm
06:04 10.5 °C 9.1 °C 1012.2 hPa SSO 5.8 km/h 8 km/h 91% 0.0 mm
06:09 10.5 °C 9.1 °C 1012.2 hPa SSO 5.3 km/h 8.7 km/h 91% 0.0 mm
06:14 10.6 °C 9.2 °C 1012.2 hPa SSO 5 km/h 9.7 km/h 91% 0.0 mm
06:19 10.6 °C 9.1 °C 1012.2 hPa Sur 5.5 km/h 9.7 km/h 90.6% 0.0 mm
06:24 10.6 °C 9 °C 1012.2 hPa SSE 5.8 km/h 8.4 km/h 90% 0.0 mm
06:29 10.5 °C 8.9 °C 1012.4 hPa SSE 5.3 km/h 10 km/h 90% 0.0 mm
06:34 10.3 °C 8.8 °C 1012.4 hPa SSE 5 km/h 11.1 km/h 90% 0.0 mm
06:39 10.2 °C 8.6 °C 1012.4 hPa SSE 6.2 km/h 11.3 km/h 90% 0.0 mm
06:44 10.2 °C 8.7 °C 1012.5 hPa SSE 6.9 km/h 11.9 km/h 90.8% 0.0 mm
06:49 10.2 °C 8.8 °C 1012.5 hPa SSE 7.9 km/h 11.9 km/h 91% 0.0 mm
06:54 10.2 °C 8.8 °C 1012.5 hPa SE 8.4 km/h 11.3 km/h 91% 0.0 mm
06:59 10.2 °C 8.8 °C 1012.6 hPa SSE 7.4 km/h 11.3 km/h 91% 0.0 mm
07:04 10.2 °C 8.8 °C 1012.6 hPa SSE 6.9 km/h 11.9 km/h 91% 0.0 mm
07:09 10.2 °C 8.7 °C 1012.6 hPa SSE 7.3 km/h 11.3 km/h 90.7% 0.0 mm
07:14 10.2 °C 8.6 °C 1012.7 hPa SSE 7.6 km/h 11.3 km/h 90% 0.0 mm
07:19 10.2 °C 8.6 °C 1012.7 hPa Sur 7.2 km/h 11.1 km/h 90% 0.0 mm
07:24 10.2 °C 8.6 °C 1012.7 hPa Sur 6.9 km/h 11.9 km/h 90% 0.0 mm
07:29 10.2 °C 8.6 °C 1012.8 hPa SSO 7.8 km/h 14 km/h 90% 0.0 mm
07:34 10.2 °C 8.6 °C 1012.8 hPa SSO 8.4 km/h 14.8 km/h 90% 0.0 mm
07:39 10.3 °C 8.7 °C 1012.8 hPa Sur 8.6 km/h 14.5 km/h 90% 0.0 mm
07:44 10.3 °C 8.8 °C 1013.0 hPa SSO 8.7 km/h 11.3 km/h 90% 0.0 mm
07:49 10.4 °C 8.8 °C 1013.0 hPa Sur 7.2 km/h 9.7 km/h 90% 0.0 mm
07:54 10.4 °C 8.8 °C 1013.0 hPa SSE 6.5 km/h 9.3 km/h 90% 0.0 mm
07:59 10.4 °C 8.9 °C 1013.1 hPa SE 6 km/h 11.1 km/h 89.9% 0.0 mm
08:04 10.6 °C 9 °C 1013.1 hPa SSE 5.8 km/h 11.3 km/h 89.8% 0.0 mm
08:09 10.6 °C 8.9 °C 1013.1 hPa SSE 6.5 km/h 11.9 km/h 89% 0.0 mm
08:14 10.6 °C 8.9 °C 1013.1 hPa Sur 6.9 km/h 14 km/h 89% 0.0 mm
08:19 10.7 °C 8.9 °C 1013.1 hPa SSO 8 km/h 14.8 km/h 89% 0.0 mm
08:24 10.7 °C 8.9 °C 1013.1 hPa SSO 8.7 km/h 14.8 km/h 88.4% 0.0 mm
08:29 10.8 °C 8.9 °C 1013.1 hPa SO 8.7 km/h 14.8 km/h 88% 0.0 mm
08:34 10.8 °C 9 °C 1013.0 hPa SO 8.7 km/h 14.5 km/h 88% 0.0 mm
08:39 10.9 °C 9 °C 1013.0 hPa SO 8.5 km/h 11.3 km/h 88% 0.0 mm
08:44 11 °C 9 °C 1013.1 hPa SO 8.4 km/h 11.9 km/h 87.4% 0.0 mm
08:49 11.2 °C 9.1 °C 1013.1 hPa SO 7.1 km/h 11.3 km/h 87% 0.0 mm
08:54 11.3 °C 9.1 °C 1013.1 hPa SO 6.5 km/h 14.8 km/h 86.3% 0.0 mm
08:59 11.3 °C 9.1 °C 1013.2 hPa SO 7.9 km/h 16.4 km/h 85.7% 0.0 mm
09:04 11.5 °C 9 °C 1013.2 hPa SO 8.7 km/h 16.7 km/h 85% 0.0 mm
09:09 11.7 °C 9.1 °C 1013.2 hPa OSO 8.7 km/h 14.8 km/h 84.3% 0.0 mm
09:14 11.8 °C 9.2 °C 1013.3 hPa OSO 8.7 km/h 14.5 km/h 84% 0.0 mm
09:19 11.9 °C 9.2 °C 1013.3 hPa OSO 8.5 km/h 13 km/h 83.3% 0.0 mm
09:24 12.1 °C 9.2 °C 1013.3 hPa OSO 8.4 km/h 15.6 km/h 82.4% 0.0 mm
09:25 12.2 °C 9.2 °C 1013.3 hPa SSO 8.3 km/h 16.1 km/h 82% 0.0 mm
09:34 12.4 °C 9.3 °C 1013.4 hPa SO 8.4 km/h 13 km/h 81.4% 0.0 mm
09:39 12.6 °C 9.3 °C 1013.4 hPa SSO 7.5 km/h 13 km/h 80.3% 0.0 mm
09:44 12.7 °C 9.1 °C 1013.5 hPa SO 6.9 km/h 14.8 km/h 78.7% 0.0 mm
09:49 12.7 °C 9 °C 1013.5 hPa OSO 7.8 km/h 15.6 km/h 78.2% 0.0 mm
09:54 12.8 °C 9.1 °C 1013.5 hPa OSO 8.4 km/h 16.1 km/h 78% 0.0 mm
09:59 12.9 °C 9.2 °C 1013.6 hPa SO 9.4 km/h 18.5 km/h 77.9% 0.0 mm
10:04 13.1 °C 9.1 °C 1013.6 hPa OSO 10 km/h 19.3 km/h 77% 0.0 mm
10:09 13.2 °C 9.2 °C 1013.6 hPa SO 9.7 km/h 16.1 km/h 76.9% 0.0 mm
10:14 13.3 °C 9.1 °C 1013.7 hPa SO 9.5 km/h 16.7 km/h 75.8% 0.0 mm
10:19 13.5 °C 9.1 °C 1013.7 hPa SO 9 km/h 16.1 km/h 74.9% 0.0 mm
10:24 13.7 °C 9.1 °C 1013.7 hPa OSO 8.7 km/h 13.7 km/h 73.8% 0.0 mm
10:29 13.9 °C 8.9 °C 1013.7 hPa OSO 7.6 km/h 14.5 km/h 71.9% 0.0 mm
10:34 14.1 °C 8.8 °C 1013.6 hPa Oeste 6.9 km/h 15.6 km/h 70.3% 0.0 mm
10:39 14.1 °C 8.2 °C 1013.6 hPa Oeste 7.9 km/h 16.1 km/h 67.8% 0.0 mm
10:44 14.1 °C 8 °C 1013.7 hPa Oeste 8.4 km/h 13 km/h 66.6% 0.0 mm
10:49 14.2 °C 7.7 °C 1013.7 hPa OSO 7.4 km/h 14.8 km/h 65% 0.0 mm
10:54 14.3 °C 7.6 °C 1013.7 hPa SO 6.9 km/h 14.8 km/h 63.9% 0.0 mm
10:59 14.5 °C 7.8 °C 1013.7 hPa ONO 7.4 km/h 16.7 km/h 64.3% 0.0 mm
11:04 14.5 °C 8.1 °C 1013.7 hPa SO 7.6 km/h 16.1 km/h 65.5% 0.0 mm
11:09 14.6 °C 8.2 °C 1013.7 hPa SO 7.2 km/h 14.5 km/h 65.6% 0.0 mm
11:14 14.7 °C 8.2 °C 1013.8 hPa Oeste 6.9 km/h 15.6 km/h 65.1% 0.0 mm
11:19 14.8 °C 8.2 °C 1013.8 hPa ONO 8.5 km/h 16.7 km/h 64.3% 0.0 mm
11:24 14.9 °C 8.2 °C 1013.8 hPa OSO 9.5 km/h 16.1 km/h 63.9% 0.0 mm
11:29 15.2 °C 8.2 °C 1013.8 hPa OSO 8.3 km/h 11.3 km/h 63.1% 0.0 mm
11:34 15.4 °C 7.9 °C 1013.6 hPa ONO 7.6 km/h 16.7 km/h 61.1% 0.0 mm
11:39 15.4 °C 7.7 °C 1013.6 hPa NNO 7.6 km/h 16.1 km/h 59.9% 0.0 mm
11:44 15.5 °C 7.6 °C 1013.6 hPa Oeste 7.6 km/h 16.7 km/h 59.2% 0.0 mm
11:49 15.5 °C 7.4 °C 1013.6 hPa OSO 7.6 km/h 16.1 km/h 58.4% 0.0 mm
11:54 15.6 °C 7.4 °C 1013.6 hPa SO 7.6 km/h 14.8 km/h 58% 0.0 mm
11:59 15.7 °C 7.4 °C 1013.6 hPa SO 6.9 km/h 14.5 km/h 57.6% 0.0 mm
12:04 15.8 °C 7.3 °C 1013.5 hPa Oeste 6.5 km/h 16.7 km/h 56.8% 0.0 mm
12:09 15.8 °C 7.3 °C 1013.5 hPa SO 6.7 km/h 15.6 km/h 57.3% 0.0 mm
12:14 15.8 °C 7.6 °C 1013.5 hPa Oeste 6.9 km/h 16.1 km/h 58.1% 0.0 mm
12:19 15.9 °C 7.7 °C 1013.5 hPa Oeste 6.6 km/h 16.7 km/h 58.2% 0.0 mm
12:24 15.9 °C 7.8 °C 1013.5 hPa Oeste 6.5 km/h 18.5 km/h 58.5% 0.0 mm
12:29 15.9 °C 7.7 °C 1013.5 hPa OSO 8.9 km/h 19.3 km/h 58.1% 0.0 mm
12:34 16 °C 7.8 °C 1013.4 hPa SO 10.3 km/h 18.5 km/h 58.4% 0.0 mm
12:39 16.3 °C 8.1 °C 1013.4 hPa Oeste 8.6 km/h 18.5 km/h 58.6% 0.0 mm
12:44 16.3 °C 7.8 °C 1013.4 hPa ONO 7.6 km/h 19.3 km/h 57.1% 0.0 mm
12:49 16.3 °C 7.9 °C 1013.2 hPa ESE 8.3 km/h 16.1 km/h 57.6% 0.0 mm
12:54 16.6 °C 7.9 °C 1013.2 hPa SSO 8.7 km/h 16.1 km/h 56.7% 0.0 mm
12:59 16.8 °C 7.7 °C 1013.2 hPa ONO 9.2 km/h 20.4 km/h 55.2% 0.0 mm
13:04 16.7 °C 7.7 °C 1013.1 hPa Oeste 9.5 km/h 20.9 km/h 55.4% 0.0 mm
13:09 16.7 °C 7.6 °C 1013.1 hPa ONO 9.5 km/h 14.8 km/h 55.2% 0.0 mm
13:14 16.8 °C 7.6 °C 1013.1 hPa NNE 9.5 km/h 18 km/h 54.9% 0.0 mm
13:19 16.7 °C 7.4 °C 1012.9 hPa NO 8.3 km/h 19.3 km/h 54.3% 0.0 mm
13:24 16.7 °C 7.6 °C 1012.9 hPa OSO 7.6 km/h 16.7 km/h 55.1% 0.0 mm
13:29 16.7 °C 7.7 °C 1012.9 hPa SO 7.6 km/h 16.1 km/h 55.1% 0.0 mm
13:34 16.8 °C 7.6 °C 1012.8 hPa SSO 7.6 km/h 14.5 km/h 54.6% 0.0 mm
13:39 16.9 °C 7.5 °C 1012.8 hPa SSE 6 km/h 11.3 km/h 54% 0.0 mm
13:44 17.1 °C 7.9 °C 1012.8 hPa Sur 5 km/h 13 km/h 54.6% 0.0 mm
13:49 17.3 °C 8 °C 1012.4 hPa SE 5.5 km/h 12.9 km/h 54.3% 0.0 mm
13:54 17.6 °C 7.8 °C 1012.4 hPa ONO 5.8 km/h 14.8 km/h 52.6% 0.0 mm
13:59 17.6 °C 7.7 °C 1012.4 hPa OSO 5.3 km/h 18 km/h 52.3% 0.0 mm
14:04 17.7 °C 8.2 °C 1012.1 hPa NO 5 km/h 22.2 km/h 53.6% 0.0 mm
14:09 17.7 °C 8 °C 1012.1 hPa NNO 8.3 km/h 22.5 km/h 53.3% 0.0 mm
14:14 17.4 °C 8.1 °C 1012.1 hPa Oeste 10.3 km/h 20.9 km/h 54.4% 0.0 mm
14:19 17.4 °C 8.4 °C 1012.0 hPa North 11.3 km/h 22.2 km/h 55.3% 0.0 mm
14:24 17.4 °C 8.2 °C 1012.0 hPa NNO 11.9 km/h 22.5 km/h 54.6% 0.0 mm
14:29 17.3 °C 7.6 °C 1012.0 hPa NNE 12.1 km/h 22.5 km/h 52.6% 0.0 mm
14:34 17.3 °C 7.6 °C 1011.9 hPa NNO 12.2 km/h 13 km/h 53.1% 0.0 mm
14:39 17.4 °C 7.7 °C 1011.9 hPa NE 10.5 km/h 18.5 km/h 53.1% 0.0 mm
14:44 17.4 °C 7.7 °C 1011.9 hPa NE 9.5 km/h 19.3 km/h 53% 0.0 mm
14:49 17.3 °C 7.6 °C 1011.7 hPa North 8.8 km/h 19.3 km/h 53% 0.0 mm
14:54 17.3 °C 7.4 °C 1011.7 hPa North 8.4 km/h 18.5 km/h 51.9% 0.0 mm
14:59 17.4 °C 7.2 °C 1011.7 hPa NNO 8.6 km/h 19.3 km/h 51% 0.0 mm
15:04 17.4 °C 7.2 °C 1011.6 hPa North 8.7 km/h 14.5 km/h 51% 0.0 mm
15:09 17.4 °C 7.1 °C 1011.6 hPa North 7.6 km/h 11.9 km/h 50.8% 0.0 mm
15:14 17.5 °C 7.2 °C 1011.6 hPa North 6.9 km/h 20.4 km/h 51.1% 0.0 mm
15:19 17.7 °C 7.2 °C 1011.3 hPa NE 8 km/h 19 km/h 50.4% 0.0 mm
15:24 17.7 °C 7.2 °C 1011.3 hPa NNE 8.7 km/h 19.3 km/h 50.1% 0.0 mm
15:29 17.8 °C 7.7 °C 1011.3 hPa NNE 9.2 km/h 27.8 km/h 51.4% 0.0 mm
15:34 17.8 °C 8 °C 1011.3 hPa NNE 9.5 km/h 31.5 km/h 52.6% 0.0 mm
15:39 17.4 °C 8 °C 1011.3 hPa NNE 14.8 km/h 32.2 km/h 53.9% 0.0 mm
15:44 17.2 °C 8.1 °C 1011.4 hPa NNE 18 km/h 29 km/h 55.3% 0.0 mm
15:49 17.3 °C 8.4 °C 1011.4 hPa NNE 16.8 km/h 30.6 km/h 56% 0.0 mm
15:54 17.2 °C 8.6 °C 1011.4 hPa NNE 16.1 km/h 30.6 km/h 56.9% 0.0 mm
15:59 16.8 °C 8.5 °C 1011.5 hPa NNE 18 km/h 31.7 km/h 57.9% 0.0 mm
16:04 16.7 °C 8.6 °C 1011.5 hPa NE 19 km/h 32.2 km/h 59% 0.0 mm
16:09 16.5 °C 8.4 °C 1011.5 hPa NE 16.9 km/h 27.4 km/h 58.8% 0.0 mm
16:14 16.6 °C 8.9 °C 1011.6 hPa NE 15.6 km/h 25.7 km/h 60.4% 0.0 mm
16:19 16.8 °C 9.4 °C 1011.6 hPa NE 12.2 km/h 20.1 km/h 61.7% 0.0 mm
16:24 16.8 °C 9.1 °C 1011.6 hPa NE 10.3 km/h 20.9 km/h 60.4% 0.0 mm
16:29 16.8 °C 9.5 °C 1011.6 hPa Este 11.3 km/h 22.5 km/h 62.3% 0.0 mm
16:34 16.7 °C 9.8 °C 1011.6 hPa ESE 11.9 km/h 22.5 km/h 63.9% 0.0 mm
16:39 16.6 °C 9.9 °C 1011.6 hPa Este 11.9 km/h 22.5 km/h 64.6% 0.0 mm
16:44 16.4 °C 9.8 °C 1011.7 hPa ENE 11.9 km/h 16.7 km/h 65% 0.0 mm
16:49 16.3 °C 9.6 °C 1011.7 hPa ENE 10.7 km/h 20.9 km/h 64.6% 0.0 mm
16:54 16.2 °C 9.7 °C 1011.7 hPa Este 10 km/h 20.9 km/h 65.5% 0.0 mm
16:59 16.1 °C 10 °C 1011.8 hPa ENE 10.2 km/h 20.9 km/h 66.9% 0.0 mm
17:04 15.9 °C 9.9 °C 1011.8 hPa Este 10.3 km/h 22.5 km/h 67.6% 0.0 mm
17:09 15.8 °C 10.2 °C 1011.8 hPa ESE 10.8 km/h 24.1 km/h 69.2% 0.0 mm
17:14 15.5 °C 10.3 °C 1011.9 hPa ESE 11.1 km/h 26.2 km/h 71.1% 0.0 mm
17:19 15.1 °C 10.3 °C 1011.9 hPa ESE 14.3 km/h 29.6 km/h 72.9% 0.0 mm
17:24 14.8 °C 10 °C 1011.9 hPa ESE 16.4 km/h 29.6 km/h 73% 0.0 mm
17:29 14.7 °C 10 °C 1012.1 hPa ESE 17.4 km/h 29 km/h 73.1% 0.0 mm
17:34 14.6 °C 10 °C 1012.1 hPa Este 18 km/h 29.6 km/h 74% 0.0 mm
17:39 14.3 °C 9.7 °C 1012.1 hPa ESE 16.9 km/h 29 km/h 74% 0.0 mm
17:44 14.1 °C 9.6 °C 1012.4 hPa ESE 16.1 km/h 29.8 km/h 74.4% 0.0 mm
17:49 13.9 °C 9.8 °C 1012.4 hPa ESE 16.3 km/h 30.6 km/h 76.2% 0.0 mm
17:54 13.8 °C 9.9 °C 1012.4 hPa SE 16.4 km/h 29.6 km/h 77% 0.0 mm
17:59 13.8 °C 9.8 °C 1012.6 hPa SE 16.2 km/h 29.6 km/h 77% 0.0 mm
18:04 13.7 °C 9.7 °C 1012.6 hPa SE 16.1 km/h 29 km/h 77% 0.0 mm
18:09 13.7 °C 9.7 °C 1012.6 hPa SE 14.8 km/h 20.9 km/h 77.1% 0.0 mm
18:14 13.7 °C 9.7 °C 1012.8 hPa SE 14 km/h 22.2 km/h 77% 0.0 mm
18:19 13.7 °C 9.7 °C 1012.8 hPa ESE 12.2 km/h 20.4 km/h 76.8% 0.0 mm
18:24 13.7 °C 9.9 °C 1012.8 hPa ESE 11.1 km/h 19 km/h 77.7% 0.5 mm
18:29 13.4 °C 9.9 °C 1013.1 hPa ESE 10.4 km/h 19.3 km/h 79.3% 0.8 mm
18:34 13.2 °C 10.1 °C 1013.1 hPa ESE 10 km/h 19.3 km/h 81.4% 0.8 mm
18:39 13.1 °C 10.2 °C 1013.1 hPa SE 9 km/h 16.7 km/h 83% 0.8 mm
18:44 12.8 °C 10.2 °C 1013.6 hPa SSE 8.4 km/h 12.9 km/h 83.9% 0.8 mm
18:49 12.7 °C 10.2 °C 1013.6 hPa SSO 6.8 km/h 10.3 km/h 84.5% 1.0 mm
18:54 12.7 °C 10.2 °C 1013.6 hPa SO 5.8 km/h 11.3 km/h 85% 1.0 mm
18:59 12.7 °C 10.4 °C 1013.8 hPa SO 4.5 km/h 5.8 km/h 85.7% 1.0 mm
19:04 12.7 °C 10.4 °C 1013.8 hPa Oeste 3.9 km/h 9.5 km/h 86% 1.5 mm
19:09 12.6 °C 10.3 °C 1013.8 hPa Oeste 3.9 km/h 14.8 km/h 86% 1.5 mm
19:14 12.3 °C 10 °C 1013.9 hPa Oeste 3.9 km/h 14.5 km/h 86% 1.8 mm
19:19 12 °C 9.7 °C 1013.9 hPa Oeste 6.6 km/h 13 km/h 85.7% 2.0 mm
19:24 11.5 °C 9.1 °C 1013.9 hPa Oeste 8.4 km/h 13.7 km/h 85% 2.0 mm
19:29 11.2 °C 8.8 °C 1014.0 hPa SO 7.5 km/h 9.3 km/h 85.5% 1.8 mm
19:34 11.1 °C 8.9 °C 1014.0 hPa SO 6.9 km/h 8 km/h 86.6% 2.3 mm
19:39 11 °C 9 °C 1014.0 hPa OSO 4.7 km/h 7.4 km/h 87.4% 2.5 mm
19:44 11.1 °C 9.2 °C 1014.2 hPa OSO 3.2 km/h 8 km/h 88% 2.8 mm
19:49 11.1 °C 9.2 °C 1014.2 hPa Oeste 2.6 km/h 4.7 km/h 88% 2.8 mm
19:54 11.1 °C 9.3 °C 1014.2 hPa ONO 2.2 km/h 7.6 km/h 88.9% 2.8 mm
19:59 11 °C 9.3 °C 1014.3 hPa ONO 2.9 km/h 11.1 km/h 88.8% 2.8 mm
20:04 10.9 °C 9.2 °C 1014.3 hPa Oeste 3.2 km/h 11.3 km/h 89% 3.1 mm
20:09 10.9 °C 9.2 °C 1014.3 hPa Oeste 4.3 km/h 8 km/h 89% 2.9 mm
20:14 10.8 °C 9.1 °C 1014.4 hPa Oeste 5 km/h 8 km/h 89% 2.9 mm
20:19 10.8 °C 9.3 °C 1014.4 hPa ONO 3.9 km/h 8 km/h 90% 2.6 mm
20:24 10.9 °C 9.3 °C 1014.4 hPa NO 3.2 km/h 6.4 km/h 90% 2.4 mm
20:29 10.9 °C 9.3 °C 1014.5 hPa NO 3.2 km/h 6.4 km/h 90% 2.3 mm
20:34 10.9 °C 9.4 °C 1014.5 hPa NO 3.2 km/h 6.4 km/h 90.7% 2.0 mm
20:39 10.9 °C 9.5 °C 1014.5 hPa NO 2.6 km/h 7.4 km/h 91% 1.6 mm
20:44 10.9 °C 9.5 °C 1014.8 hPa North 2.2 km/h 8 km/h 91% 1.6 mm
20:49 10.9 °C 9.5 °C 1014.8 hPa NE 3.3 km/h 8.4 km/h 91% 1.5 mm
20:54 10.9 °C 9.5 °C 1014.8 hPa NE 3.9 km/h 8.4 km/h 91% 1.5 mm
20:59 10.9 °C 9.6 °C 1014.9 hPa NNE 4.6 km/h 9.5 km/h 91.3% 1.6 mm
21:04 10.9 °C 9.7 °C 1014.9 hPa ENE 5 km/h 9.7 km/h 92% 1.3 mm
21:09 11.1 °C 9.8 °C 1014.9 hPa ENE 5 km/h 9.5 km/h 92% 1.3 mm
21:14 11.1 °C 9.8 °C 1014.9 hPa Este 5 km/h 9.7 km/h 92% 1.0 mm
21:19 11.1 °C 9.8 °C 1014.9 hPa ENE 4.8 km/h 8 km/h 92% 1.0 mm
21:24 11.1 °C 9.8 °C 1014.9 hPa NE 4.7 km/h 9.3 km/h 92% 1.2 mm
21:29 11.1 °C 9.9 °C 1015.0 hPa ENE 4.1 km/h 9.7 km/h 92.2% 1.0 mm
21:34 11 °C 9.8 °C 1015.0 hPa NE 3.9 km/h 8 km/h 92.3% 1.0 mm
21:39 10.9 °C 9.7 °C 1015.0 hPa NE 4.3 km/h 8 km/h 92.5% 1.0 mm
21:44 10.9 °C 9.8 °C 1015.1 hPa NNE 4.7 km/h 7.4 km/h 93% 0.7 mm
21:49 10.9 °C 9.8 °C 1015.1 hPa North 4.2 km/h 8 km/h 93% 1.0 mm
21:54 10.9 °C 9.8 °C 1015.1 hPa North 3.9 km/h 8 km/h 93% 0.8 mm
21:59 10.9 °C 9.8 °C 1015.2 hPa NNE 4.4 km/h 8 km/h 93% 0.8 mm
22:04 10.9 °C 9.8 °C 1015.2 hPa North 4.6 km/h 9.3 km/h 93% 1.0 mm
22:09 10.9 °C 9.8 °C 1015.2 hPa North 4.8 km/h 9.7 km/h 93% 1.0 mm
22:14 10.9 °C 9.8 °C 1015.3 hPa NNE 5 km/h 9.7 km/h 93% 1.3 mm
22:19 10.9 °C 9.9 °C 1015.3 hPa NNE 5 km/h 9.7 km/h 93% 1.3 mm
22:24 11 °C 10 °C 1015.3 hPa NNE 5 km/h 11.9 km/h 93.9% 1.3 mm
22:29 11 °C 10.1 °C 1015.4 hPa NNE 5.5 km/h 11.3 km/h 94% 1.1 mm
22:34 11 °C 10.1 °C 1015.4 hPa NNE 5.8 km/h 11.3 km/h 94% 1.3 mm
22:39 11 °C 10.1 °C 1015.4 hPa NNE 6.5 km/h 13 km/h 94% 1.3 mm
22:44 11 °C 10.1 °C 1015.5 hPa NNE 6.9 km/h 12.9 km/h 94% 1.3 mm
22:49 11 °C 10.1 °C 1015.5 hPa NNE 6.9 km/h 13 km/h 94% 1.0 mm
22:54 11 °C 10.1 °C 1015.5 hPa NNE 6.9 km/h 14.8 km/h 94% 1.0 mm
22:59 11 °C 10.1 °C 1015.6 hPa NNE 7.3 km/h 14.5 km/h 94% 1.3 mm
23:04 11 °C 10.1 °C 1015.6 hPa NNE 7.6 km/h 12.9 km/h 94% 1.3 mm
23:09 10.9 °C 10 °C 1015.6 hPa NE 7.2 km/h 11.9 km/h 94% 1.0 mm
23:14 10.9 °C 10 °C 1015.6 hPa NE 6.9 km/h 11.3 km/h 94.1% 1.0 mm
23:19 11 °C 10.2 °C 1015.6 hPa ENE 5.8 km/h 7.4 km/h 95% 1.0 mm
23:24 11 °C 10.2 °C 1015.6 hPa ENE 5 km/h 7.6 km/h 95% 1.0 mm
23:29 11 °C 10.2 °C 1015.6 hPa Este 3.9 km/h 8 km/h 95% 1.0 mm
23:34 11 °C 10.3 °C 1015.6 hPa Este 3.2 km/h 6.4 km/h 95% 1.2 mm
23:39 11.1 °C 10.3 °C 1015.6 hPa Este 1.3 km/h 3.2 km/h 95% 1.0 mm
23:44 11.1 °C 10.3 °C 1015.6 hPa Calm     95% 1.0 mm
23:49 11 °C 10.3 °C 1015.5 hPa Calm     95% 1.5 mm
23:54 10.9 °C 10.1 °C 1015.5 hPa Calm     95% 1.5 mm
23:59 10.9 °C 10.1 °C 1015.6 hPa Calm   3.7 km/h 95% 1.5 mm
Murcia-Puente Tocinos, España
Compliments of Weather Underground - 3 mb

La estación de MeteoMurcia.com, publica sus datos en los siguientes proyectos:

Weather Underground PWS IMURCIAP2 Meteoclimatic www.awekas.at

W3Counter
Web Analytics